Time;durP1;ratioP1;P1;durP2;ratioP2;P2;SDS_P1;SDS_P2;PMS_P1;PMS_P2;Temp;Humidity;BMP_temperature;BMP_pressure;BME280_temperature;BME280_humidity;BME280_pressure;Samples;Min_cycle;Max_cycle;Signal;HPM_P1;HPM_P2
2022/08/08 00:00:05;;;;;;;5.25;0.88;;;23.60;54.20;;;;;;4493724;31;20140;-70
2022/08/08 00:03:07;;;;;;;3.28;0.98;;;23.50;54.10;;;;;;4507648;31;20634;-70
2022/08/08 00:05:42;;;;;;;1.55;1.00;;;23.50;54.10;;;;;;4508863;31;20146;-71
2022/08/08 00:08:37;;;;;;;1.42;0.98;;;23.50;54.20;;;;;;4512994;31;20068;-70
2022/08/08 00:11:24;;;;;;;1.20;1.10;;;23.50;54.10;;;;;;4513251;31;20076;-70
2022/08/08 00:14:03;;;;;;;1.75;0.88;;;23.50;54.10;;;;;;4513208;31;20210;-70
2022/08/08 00:16:37;;;;;;;2.13;0.90;;;23.50;54.20;;;;;;4513052;31;20060;-70
2022/08/08 00:19:40;;;;;;;0.93;0.80;;;23.50;54.20;;;;;;4513145;31;20653;-70
2022/08/08 00:22:13;;;;;;;1.42;0.77;;;23.50;54.20;;;;;;4513003;31;20079;-70
2022/08/08 00:24:45;;;;;;;2.35;0.95;;;23.50;54.20;;;;;;4513320;31;20076;-70
2022/08/08 00:27:14;;;;;;;1.60;0.75;;;23.50;54.20;;;;;;4513020;31;20085;-70
2022/08/08 00:29:59;;;;;;;1.77;0.95;;;23.50;54.30;;;;;;4498444;31;20137;-70
2022/08/08 00:32:35;;;;;;;1.40;0.88;;;23.50;54.20;;;;;;4513018;31;20190;-70
2022/08/08 00:35:09;;;;;;;1.42;1.00;;;23.50;54.30;;;;;;4513152;31;20093;-70
2022/08/08 00:37:53;;;;;;;2.15;1.00;;;23.50;54.30;;;;;;4513232;31;20089;-70
2022/08/08 00:40:28;;;;;;;1.40;0.73;;;23.40;54.20;;;;;;4512997;31;20616;-70
2022/08/08 00:43:12;;;;;;;1.83;1.20;;;23.40;54.20;;;;;;4512844;31;20076;-71
2022/08/08 00:45:53;;;;;;;1.90;0.98;;;23.40;54.20;;;;;;4512584;31;20087;-70
2022/08/08 00:48:43;;;;;;;1.20;1.00;;;23.40;54.20;;;;;;4512298;31;20073;-72
2022/08/08 00:51:28;;;;;;;2.35;0.93;;;23.40;54.20;;;;;;4512876;31;20149;-70
2022/08/08 00:54:48;;;;;;;1.80;0.90;;;23.40;54.20;;;;;;4512848;31;20087;-71
2022/08/08 00:57:51;;;;;;;1.88;0.90;;;23.40;54.20;;;;;;4463444;32;20069;-70
2022/08/08 01:00:24;;;;;;;2.13;0.98;;;23.40;54.20;;;;;;4513021;31;20227;-70
2022/08/08 01:03:11;;;;;;;1.90;1.00;;;23.40;54.30;;;;;;4512799;31;20060;-70
2022/08/08 01:05:57;;;;;;;2.28;0.90;;;23.40;54.30;;;;;;4512660;31;20088;-70
2022/08/08 01:08:44;;;;;;;1.73;0.68;;;23.40;54.20;;;;;;4487462;31;20184;-70
2022/08/08 01:11:22;;;;;;;1.88;0.80;;;23.40;54.30;;;;;;4512689;31;20114;-70
2022/08/08 01:14:19;;;;;;;1.13;0.70;;;23.40;54.30;;;;;;4512318;31;20490;-71
2022/08/08 01:17:01;;;;;;;1.13;0.82;;;23.40;54.30;;;;;;4497611;31;20175;-70
2022/08/08 01:20:20;;;;;;;1.13;0.70;;;23.40;54.30;;;;;;4509307;31;20112;-70
2022/08/08 01:23:01;;;;;;;2.70;0.80;;;23.40;54.30;;;;;;4510099;31;20112;-70
2022/08/08 01:25:29;;;;;;;1.00;0.50;;;23.40;54.30;;;;;;4510116;31;20111;-70
2022/08/08 01:28:16;;;;;;;1.60;0.73;;;23.40;54.30;;;;;;4509870;31;20495;-70
2022/08/08 01:31:05;;;;;;;1.30;0.90;;;23.30;54.30;;;;;;4509969;31;20488;-70
2022/08/08 01:33:46;;;;;;;1.38;0.80;;;23.40;54.40;;;;;;4503396;31;20418;-70
2022/08/08 01:36:40;;;;;;;1.05;0.70;;;23.30;54.40;;;;;;4509811;31;20443;-70
2022/08/08 01:39:14;;;;;;;1.13;0.80;;;23.30;54.40;;;;;;4509701;31;20480;-70
2022/08/08 01:42:18;;;;;;;0.93;0.60;;;23.30;54.40;;;;;;4510023;31;20091;-70
2022/08/08 01:44:59;;;;;;;1.23;0.73;;;23.30;54.30;;;;;;4509508;31;20130;-70
2022/08/08 01:47:45;;;;;;;1.40;0.80;;;23.30;54.40;;;;;;4509225;31;20088;-70
2022/08/08 01:50:32;;;;;;;2.08;0.82;;;23.30;54.40;;;;;;4509718;31;20072;-70
2022/08/08 01:53:20;;;;;;;1.10;0.60;;;23.30;54.40;;;;;;4495339;31;20226;-70
2022/08/08 01:56:11;;;;;;;1.63;0.77;;;23.30;54.40;;;;;;4495267;31;20091;-70
2022/08/08 01:58:55;;;;;;;0.88;0.55;;;23.30;54.50;;;;;;4509771;31;20250;-70
2022/08/08 02:01:40;;;;;;;1.25;0.70;;;23.30;54.50;;;;;;4509210;31;20199;-70
2022/08/08 02:04:34;;;;;;;3.05;0.88;;;23.30;54.50;;;;;;4509117;31;20518;-70
2022/08/08 02:07:13;;;;;;;2.30;0.93;;;23.30;54.50;;;;;;4509277;31;20230;-70
2022/08/08 02:10:06;;;;;;;1.35;0.68;;;23.30;54.50;;;;;;4509999;31;20077;-70
2022/08/08 02:12:49;;;;;;;1.25;0.70;;;23.30;54.50;;;;;;4495055;31;20087;-70
2022/08/08 02:15:36;;;;;;;1.60;0.60;;;23.30;54.50;;;;;;4509615;31;20086;-70
2022/08/08 02:18:16;;;;;;;1.27;0.80;;;23.30;54.50;;;;;;4509545;31;20220;-70
2022/08/08 02:23:58;;;;;;;1.00;0.70;;;23.20;54.50;;;;;;4509421;31;20406;-70
2022/08/08 02:26:32;;;;;;;2.45;0.82;;;23.30;54.50;;;;;;4509226;31;20088;-70
2022/08/08 02:28:59;;;;;;;;;;;23.20;55.50;;;;;;4509434;31;20100;-70
2022/08/08 02:32:22;;;;;;;1.35;0.60;;;23.20;54.50;;;;;;4509004;31;20103;-70
2022/08/08 02:35:02;;;;;;;1.25;0.52;;;23.20;54.60;;;;;;4459882;32;20081;-70
2022/08/08 02:37:37;;;;;;;1.13;0.70;;;23.20;54.60;;;;;;4459656;32;20128;-70
2022/08/08 02:40:22;;;;;;;1.38;0.75;;;23.20;54.60;;;;;;4496837;31;20094;-70
2022/08/08 02:43:26;;;;;;;1.00;0.77;;;23.20;54.60;;;;;;4509134;31;20494;-70
2022/08/08 02:46:20;;;;;;;1.25;0.80;;;23.20;54.60;;;;;;4509083;31;20414;-70
2022/08/08 02:49:19;;;;;;;1.50;0.70;;;23.20;54.60;;;;;;4508898;31;20100;-70
2022/08/08 02:52:01;;;;;;;1.02;0.55;;;23.20;54.70;;;;;;4508735;31;20087;-70
2022/08/08 02:54:52;;;;;;;1.02;0.55;;;23.20;54.80;;;;;;4508820;31;20250;-70
2022/08/08 02:57:37;;;;;;;1.48;1.08;;;23.20;54.80;;;;;;4508624;31;20237;-70
2022/08/08 03:00:29;;;;;;;0.90;0.50;;;23.20;54.70;;;;;;4508344;31;20078;-70
2022/08/08 03:03:32;;;;;;;1.23;0.70;;;23.10;54.70;;;;;;4499860;31;20237;-71
2022/08/08 03:06:21;;;;;;;0.93;0.52;;;23.20;54.80;;;;;;4508471;31;20173;-70
2022/08/08 03:09:06;;;;;;;2.08;0.68;;;23.10;54.70;;;;;;4508205;31;20120;-70
2022/08/08 03:12:08;;;;;;;0.75;0.60;;;23.10;54.80;;;;;;4508164;31;20084;-70
2022/08/08 03:14:44;;;;;;;1.00;0.63;;;23.10;54.80;;;;;;4508697;31;20162;-71
2022/08/08 03:17:27;;;;;;;0.70;0.60;;;23.10;54.80;;;;;;4508666;31;20092;-70
2022/08/08 03:20:04;;;;;;;1.00;0.70;;;23.10;54.80;;;;;;4494264;31;20069;-70
2022/08/08 03:22:31;;;;;;;0.98;0.60;;;23.10;54.80;;;;;;4508036;31;20092;-70
2022/08/08 03:25:05;;;;;;;1.00;0.68;;;23.10;54.80;;;;;;4507942;31;20100;-70
2022/08/08 03:27:40;;;;;;;1.63;0.80;;;23.10;54.80;;;;;;4508441;31;20065;-70
2022/08/08 03:30:11;;;;;;;1.45;0.65;;;23.10;54.80;;;;;;4507942;31;20173;-70
2022/08/08 03:35:25;;;;;;;1.48;0.77;;;23.10;54.90;;;;;;4508329;31;20080;-70
2022/08/08 03:37:51;;;;;;;1.15;0.60;;;23.10;54.90;;;;;;4508048;31;20271;-70
2022/08/08 03:40:20;;;;;;;2.10;0.65;;;23.10;54.90;;;;;;4507431;31;20100;-70
2022/08/08 03:42:47;;;;;;;1.05;0.73;;;23.10;54.90;;;;;;4507953;31;20441;-70
2022/08/08 03:45:22;;;;;;;1.10;0.60;;;23.10;54.90;;;;;;4493487;31;20064;-70
2022/08/08 03:48:02;;;;;;;0.85;0.60;;;23.10;54.90;;;;;;4507793;31;20095;-70
2022/08/08 03:50:30;;;;;;;0.88;0.60;;;23.10;54.90;;;;;;4508325;31;20161;-70
2022/08/08 03:53:04;;;;;;;1.05;0.60;;;23.10;55.00;;;;;;4507605;31;20084;-70
2022/08/08 03:55:30;;;;;;;1.00;0.68;;;23.10;55.00;;;;;;4507948;31;20095;-70
2022/08/08 03:57:56;;;;;;;1.08;0.60;;;23.10;55.00;;;;;;4507825;31;20501;-70
2022/08/08 04:00:25;;;;;;;2.10;0.75;;;23.00;54.90;;;;;;4507840;31;20222;-70
2022/08/08 04:03:21;;;;;;;0.82;0.60;;;23.00;54.90;;;;;;4507873;31;20221;-70
2022/08/08 04:05:48;;;;;;;0.70;0.50;;;23.10;55.00;;;;;;4483602;31;20117;-70
2022/08/08 04:08:20;;;;;;;0.93;0.52;;;23.00;55.00;;;;;;4507707;31;20084;-70
2022/08/08 04:10:48;;;;;;;0.88;0.60;;;23.00;55.00;;;;;;4508010;31;20092;-70
2022/08/08 04:13:14;;;;;;;1.48;0.70;;;23.00;55.00;;;;;;4507455;31;20503;-70
2022/08/08 04:15:41;;;;;;;0.80;0.40;;;23.00;55.00;;;;;;4493136;31;20072;-70
2022/08/08 04:18:06;;;;;;;0.57;0.40;;;23.00;55.00;;;;;;4507712;31;20092;-70
2022/08/08 04:20:33;;;;;;;0.88;0.52;;;23.00;55.10;;;;;;4507486;31;20522;-70
2022/08/08 04:22:59;;;;;;;0.85;0.50;;;23.00;55.00;;;;;;4507659;31;20596;-70
2022/08/08 04:25:25;;;;;;;1.50;0.50;;;23.00;55.10;;;;;;4507805;31;20085;-70
2022/08/08 04:27:52;;;;;;;0.38;0.32;;;23.00;55.10;;;;;;4507287;31;20426;-70
2022/08/08 04:30:17;;;;;;;0.73;0.52;;;23.00;55.10;;;;;;4507598;31;20107;-70
2022/08/08 04:32:43;;;;;;;0.90;0.57;;;23.00;55.10;;;;;;4507581;31;20499;-70
2022/08/08 04:35:09;;;;;;;0.68;0.43;;;23.00;55.10;;;;;;4507253;31;20226;-70
2022/08/08 04:37:35;;;;;;;0.85;0.63;;;23.00;55.10;;;;;;4507799;31;20057;-70
2022/08/08 04:40:02;;;;;;;1.20;0.70;;;23.00;55.10;;;;;;4492989;31;20153;-70
2022/08/08 04:42:32;;;;;;;0.98;0.50;;;23.00;55.10;;;;;;4507458;31;20100;-70
2022/08/08 04:44:59;;;;;;;1.55;0.40;;;22.90;55.10;;;;;;4507497;31;20097;-70
2022/08/08 04:47:25;;;;;;;0.70;0.50;;;23.00;55.10;;;;;;4507314;31;20095;-70
2022/08/08 04:49:51;;;;;;;0.80;0.55;;;22.90;55.10;;;;;;4507437;31;20521;-70
2022/08/08 04:52:17;;;;;;;0.77;0.50;;;22.90;55.10;;;;;;4508763;31;20108;-70
2022/08/08 04:54:42;;;;;;;0.90;0.63;;;22.90;56.00;;;;;;4510520;31;20069;-70
2022/08/08 04:57:09;;;;;;;0.60;0.40;;;22.90;55.10;;;;;;4510721;31;20375;-71
2022/08/08 04:59:36;;;;;;;1.60;0.88;;;22.90;55.10;;;;;;4510674;31;20210;-70
2022/08/08 05:02:02;;;;;;;0.40;0.40;;;22.90;55.20;;;;;;4510330;31;20088;-70
2022/08/08 05:04:27;;;;;;;1.25;0.50;;;22.90;55.20;;;;;;4509940;31;20236;-70
2022/08/08 05:06:53;;;;;;;0.60;0.45;;;22.90;55.20;;;;;;4510426;31;20081;-70
2022/08/08 05:09:19;;;;;;;0.70;0.63;;;22.90;55.20;;;;;;4510269;31;20086;-71
2022/08/08 05:11:48;;;;;;;0.73;0.50;;;22.90;55.20;;;;;;4510264;31;20072;-70
2022/08/08 05:14:15;;;;;;;0.60;0.57;;;22.90;55.20;;;;;;4510185;31;20088;-70
2022/08/08 05:16:41;;;;;;;0.50;0.45;;;22.90;55.20;;;;;;4509842;31;20093;-70
2022/08/08 05:19:13;;;;;;;0.60;0.45;;;22.90;55.20;;;;;;4510043;31;20124;-70
2022/08/08 05:21:41;;;;;;;1.00;0.50;;;22.90;55.20;;;;;;4510211;31;20073;-70
2022/08/08 05:24:08;;;;;;;0.50;0.50;;;22.90;55.30;;;;;;4510005;31;20135;-70
2022/08/08 05:26:35;;;;;;;1.00;0.50;;;22.90;55.30;;;;;;4510003;31;20195;-71
2022/08/08 05:29:07;;;;;;;1.00;0.45;;;22.90;55.30;;;;;;4495456;31;20084;-70
2022/08/08 05:31:35;;;;;;;0.95;0.50;;;22.90;55.30;;;;;;4509730;31;20091;-70
2022/08/08 05:34:05;;;;;;;0.65;0.55;;;22.90;55.30;;;;;;4495512;31;20400;-70
2022/08/08 05:36:34;;;;;;;0.95;0.50;;;22.90;55.30;;;;;;4510004;31;20166;-70
2022/08/08 05:39:04;;;;;;;0.80;0.52;;;22.90;55.30;;;;;;4509800;31;20077;-70
2022/08/08 05:41:34;;;;;;;0.70;0.50;;;22.90;55.30;;;;;;4509771;31;20417;-70
2022/08/08 05:44:11;;;;;;;1.42;0.70;;;22.90;55.40;;;;;;4509866;31;20574;-70
2022/08/08 05:46:39;;;;;;;1.27;0.50;;;22.90;55.40;;;;;;4495338;31;20080;-70
2022/08/08 05:49:09;;;;;;;0.55;0.43;;;22.90;55.40;;;;;;4509626;31;20108;-70
2022/08/08 05:51:35;;;;;;;1.30;0.70;;;22.90;55.40;;;;;;4495326;31;20421;-70
2022/08/08 05:54:02;;;;;;;1.65;0.43;;;22.90;55.40;;;;;;4509826;31;20068;-70
2022/08/08 05:56:29;;;;;;;0.90;0.60;;;22.90;55.40;;;;;;4509265;31;20092;-70
2022/08/08 05:59:03;;;;;;;0.47;0.43;;;22.90;55.40;;;;;;4509527;31;20073;-70
2022/08/08 06:01:30;;;;;;;1.85;0.63;;;22.80;55.40;;;;;;4509324;31;20068;-70
2022/08/08 06:04:03;;;;;;;0.85;0.60;;;22.80;55.40;;;;;;4508647;31;20216;-70
2022/08/08 06:06:30;;;;;;;;;;;22.80;55.40;;;;;;4510256;31;20089;-70
2022/08/08 06:09:01;;;;;;;0.70;0.50;;;22.80;55.40;;;;;;4509050;31;19973;-70
2022/08/08 06:11:30;;;;;;;1.38;0.60;;;22.80;55.50;;;;;;4509742;31;20173;-70
2022/08/08 06:13:56;;;;;;;1.42;0.60;;;22.80;55.50;;;;;;4494883;31;20099;-70
2022/08/08 06:16:23;;;;;;;0.90;0.60;;;22.80;55.50;;;;;;4509002;31;20064;-70
2022/08/08 06:18:52;;;;;;;0.95;0.57;;;22.80;55.50;;;;;;4509166;31;20073;-70
2022/08/08 06:21:20;;;;;;;0.90;0.73;;;22.80;55.50;;;;;;4508901;31;20576;-70
2022/08/08 06:23:46;;;;;;;0.90;0.55;;;22.80;55.60;;;;;;4509161;31;20087;-70
2022/08/08 06:26:13;;;;;;;0.68;0.47;;;22.80;55.50;;;;;;4509125;31;20064;-70
2022/08/08 06:29:04;;;;;;;1.35;0.63;;;22.80;55.60;;;;;;4509011;31;20418;-70
2022/08/08 06:31:35;;;;;;;1.20;0.60;;;22.90;55.70;;;;;;4509173;31;20519;-70
2022/08/08 06:34:04;;;;;;;1.48;0.55;;;22.90;55.60;;;;;;4509403;31;20073;-70
2022/08/08 06:36:37;;;;;;;0.60;0.50;;;22.90;55.60;;;;;;4508945;31;20391;-70
2022/08/08 06:39:04;;;;;;;1.73;0.50;;;22.90;55.60;;;;;;4509076;31;20073;-70
2022/08/08 06:41:33;;;;;;;0.40;0.40;;;22.90;55.60;;;;;;4508904;31;20184;-70
2022/08/08 06:44:02;;;;;;;0.88;0.60;;;22.90;55.60;;;;;;4509082;31;20088;-70
2022/08/08 06:46:29;;;;;;;1.30;0.60;;;22.90;55.70;;;;;;4508853;31;20081;-70
2022/08/08 06:48:55;;;;;;;1.05;0.50;;;22.90;55.70;;;;;;4509139;31;20073;-70
2022/08/08 06:51:22;;;;;;;0.80;0.60;;;22.90;55.70;;;;;;4508732;31;20065;-70
2022/08/08 06:53:49;;;;;;;0.77;0.50;;;22.90;55.70;;;;;;4508760;31;20116;-70
2022/08/08 06:56:14;;;;;;;1.05;0.60;;;22.90;55.70;;;;;;4508660;31;20083;-70
2022/08/08 06:58:40;;;;;;;0.93;0.50;;;22.90;55.70;;;;;;4508686;31;20069;-70
2022/08/08 07:01:12;;;;;;;0.68;0.32;;;22.90;55.70;;;;;;4508660;31;20215;-70
2022/08/08 07:03:53;;;;;;;0.65;0.52;;;22.90;55.70;;;;;;4508642;31;20120;-70
2022/08/08 07:06:22;;;;;;;0.50;0.50;;;23.00;55.80;;;;;;4508436;31;20088;-70
2022/08/08 07:08:55;;;;;;;0.82;0.60;;;23.00;55.80;;;;;;4508411;31;20509;-70
2022/08/08 07:11:27;;;;;;;1.25;0.73;;;23.00;55.70;;;;;;4508600;31;20069;-70
2022/08/08 07:14:00;;;;;;;0.70;0.40;;;23.00;55.60;;;;;;4508784;31;20480;-70
2022/08/08 07:16:43;;;;;;;0.95;0.45;;;23.00;55.80;;;;;;4493396;31;20213;-70
2022/08/08 07:19:23;;;;;;;3.15;0.60;;;23.00;55.80;;;;;;4508447;31;20118;-68
2022/08/08 07:22:03;;;;;;;2.45;0.77;;;23.00;55.90;;;;;;4508696;31;20072;-68
2022/08/08 07:24:51;;;;;;;2.70;0.47;;;23.10;55.90;;;;;;4508540;31;20523;-69
2022/08/08 07:27:24;;;;;;;2.67;0.65;;;23.10;56.00;;;;;;4508138;31;20084;-68
2022/08/08 07:29:53;;;;;;;2.30;0.60;;;23.10;55.90;;;;;;4508488;31;20406;-68
2022/08/08 07:32:20;;;;;;;2.33;0.68;;;23.10;56.10;;;;;;4508134;31;20092;-69
2022/08/08 07:34:48;;;;;;;1.20;0.60;;;23.10;56.30;;;;;;4508058;31;20088;-69
2022/08/08 07:37:14;;;;;;;1.55;0.63;;;23.10;56.30;;;;;;4508128;31;20498;-69
2022/08/08 07:39:42;;;;;;;1.75;0.70;;;23.10;56.50;;;;;;4493531;31;20484;-69
2022/08/08 07:42:12;;;;;;;2.30;0.77;;;23.20;56.80;;;;;;4508258;31;20116;-69
2022/08/08 07:44:40;;;;;;;6.07;0.75;;;23.20;56.80;;;;;;4507712;31;20132;-69
2022/08/08 07:47:07;;;;;;;1.65;0.73;;;23.20;56.80;;;;;;4508135;31;20068;-69
2022/08/08 07:49:33;;;;;;;2.25;0.82;;;23.20;56.90;;;;;;4507958;31;20668;-69
2022/08/08 07:52:01;;;;;;;2.95;0.98;;;23.20;56.80;;;;;;4507949;31;20073;-69
2022/08/08 07:54:39;;;;;;;4.63;0.68;;;23.20;56.90;;;;;;4507844;31;20151;-69
2022/08/08 07:57:23;;;;;;;3.58;0.70;;;23.20;57.10;;;;;;4494809;31;20206;-69
2022/08/08 07:59:57;;;;;;;;;;;23.20;57.10;;;;;;4508639;31;20068;-69
2022/08/08 08:02:36;;;;;;;1.98;0.60;;;23.20;57.20;;;;;;4508252;31;19962;-68
2022/08/08 08:05:03;;;;;;;1.73;0.50;;;23.20;57.10;;;;;;4507819;31;20064;-69
2022/08/08 08:07:33;;;;;;;2.65;0.82;;;23.30;57.30;;;;;;4507403;31;20072;-69
2022/08/08 08:10:02;;;;;;;1.27;0.73;;;23.30;57.30;;;;;;4507501;31;20421;-70
2022/08/08 08:12:28;;;;;;;2.78;0.50;;;23.30;57.20;;;;;;4507701;31;20407;-69
2022/08/08 08:15:02;;;;;;;2.03;0.52;;;23.30;57.30;;;;;;4507427;31;20514;-69
2022/08/08 08:17:29;;;;;;;3.22;0.80;;;23.30;57.30;;;;;;4507791;31;20473;-69
2022/08/08 08:20:03;;;;;;;4.30;0.90;;;23.30;57.40;;;;;;4507372;31;20073;-69
2022/08/08 08:22:29;;;;;;;4.15;0.90;;;23.30;57.50;;;;;;4507966;31;20077;-69
2022/08/08 08:24:57;;;;;;;2.03;0.70;;;23.30;57.50;;;;;;4507609;31;20080;-69
2022/08/08 08:27:23;;;;;;;2.38;0.77;;;23.30;57.50;;;;;;4508982;31;20207;-69
2022/08/08 08:29:49;;;;;;;3.28;0.68;;;23.30;57.50;;;;;;4510920;31;20057;-69
2022/08/08 08:32:15;;;;;;;2.50;0.80;;;23.30;57.60;;;;;;4510966;31;20466;-70
2022/08/08 08:34:41;;;;;;;3.58;0.90;;;23.30;57.60;;;;;;4496367;31;20218;-69
2022/08/08 08:37:06;;;;;;;1.27;0.65;;;23.30;57.70;;;;;;4510755;31;20079;-68
2022/08/08 08:39:32;;;;;;;1.88;0.60;;;23.30;57.60;;;;;;4510670;31;20064;-68
2022/08/08 08:41:59;;;;;;;3.90;0.77;;;23.30;57.70;;;;;;4510644;31;20406;-68
2022/08/08 08:44:26;;;;;;;4.93;1.00;;;23.30;57.70;;;;;;4510323;31;20088;-68
2022/08/08 08:46:54;;;;;;;1.60;0.60;;;23.30;57.80;;;;;;4510177;31;20285;-68
2022/08/08 08:49:20;;;;;;;2.58;0.80;;;23.30;57.90;;;;;;4510737;31;20131;-68
2022/08/08 08:51:48;;;;;;;2.05;0.60;;;23.30;57.90;;;;;;4510396;31;20208;-68
2022/08/08 08:54:15;;;;;;;2.33;0.50;;;23.30;58.00;;;;;;4510460;31;20169;-68
2022/08/08 08:56:41;;;;;;;1.67;0.60;;;23.30;57.90;;;;;;4510441;31;20072;-68
2022/08/08 08:59:09;;;;;;;2.42;0.85;;;23.30;57.90;;;;;;4496178;31;20376;-68
2022/08/08 09:01:40;;;;;;;3.20;0.80;;;23.30;57.90;;;;;;4510469;31;20080;-68
2022/08/08 09:04:19;;;;;;;2.33;0.70;;;23.30;58.00;;;;;;4510484;31;20210;-68
2022/08/08 09:06:47;;;;;;;3.42;1.00;;;23.30;58.00;;;;;;4510615;31;20080;-68
2022/08/08 09:09:18;;;;;;;4.35;0.95;;;23.40;58.00;;;;;;4510450;31;20083;-67
2022/08/08 09:11:46;;;;;;;2.85;0.63;;;23.40;58.00;;;;;;4496092;31;20080;-68
2022/08/08 09:14:13;;;;;;;2.33;0.80;;;23.40;58.00;;;;;;4510187;31;20080;-68
2022/08/08 09:16:39;;;;;;;2.25;0.90;;;23.40;58.00;;;;;;4509859;31;20080;-68
2022/08/08 09:19:05;;;;;;;3.40;0.70;;;23.40;58.00;;;;;;4510094;31;20297;-68
2022/08/08 09:21:32;;;;;;;4.00;1.00;;;23.40;58.10;;;;;;4510307;31;20483;-67
2022/08/08 09:23:59;;;;;;;2.50;0.90;;;23.40;58.20;;;;;;4495605;31;20132;-68
2022/08/08 09:26:50;;;;;;;4.88;1.10;;;23.40;58.20;;;;;;4509976;31;20099;-67
2022/08/08 09:29:25;;;;;;;1.75;0.80;;;23.40;58.30;;;;;;4509680;31;20144;-68
2022/08/08 09:32:03;;;;;;;1.77;0.73;;;23.40;58.40;;;;;;4510341;31;20169;-68
2022/08/08 09:34:33;;;;;;;6.00;1.00;;;23.40;58.40;;;;;;4510095;31;20174;-67
2022/08/08 09:37:09;;;;;;;3.00;0.82;;;23.40;58.30;;;;;;4510208;31;20065;-68
2022/08/08 09:39:59;;;;;;;4.45;0.82;;;23.40;58.30;;;;;;4508948;31;20157;-68
2022/08/08 09:42:35;;;;;;;2.92;0.65;;;23.40;58.30;;;;;;4495331;31;20073;-68
2022/08/08 09:45:07;;;;;;;3.08;0.85;;;23.50;58.30;;;;;;4509829;31;20095;-69
2022/08/08 09:47:39;;;;;;;2.83;1.05;;;23.40;58.20;;;;;;4509609;31;20068;-69
2022/08/08 09:50:10;;;;;;;3.60;0.98;;;23.50;58.30;;;;;;4509336;31;20087;-69
2022/08/08 09:52:39;;;;;;;2.08;0.77;;;23.50;58.30;;;;;;4509976;31;20068;-68
2022/08/08 09:55:06;;;;;;;3.47;1.00;;;23.50;58.30;;;;;;4509563;31;20215;-68
2022/08/08 09:57:37;;;;;;;2.35;0.95;;;23.50;58.30;;;;;;4509740;31;20095;-68
2022/08/08 10:00:07;;;;;;;2.83;1.02;;;23.50;58.30;;;;;;4509777;31;20457;-68
2022/08/08 10:02:35;;;;;;;4.32;1.10;;;23.50;58.30;;;;;;4509495;31;20085;-69
2022/08/08 10:05:07;;;;;;;2.72;0.90;;;23.50;58.20;;;;;;4509298;31;20081;-69
2022/08/08 10:07:33;;;;;;;2.70;0.73;;;23.50;58.20;;;;;;4509426;31;20080;-68
2022/08/08 10:09:59;;;;;;;2.28;0.82;;;23.60;58.20;;;;;;4509118;31;20077;-68
2022/08/08 10:12:32;;;;;;;3.20;0.90;;;23.50;58.10;;;;;;4509571;31;20092;-68
2022/08/08 10:15:00;;;;;;;3.33;1.30;;;23.60;58.20;;;;;;4509100;31;20132;-67
2022/08/08 10:17:26;;;;;;;3.40;1.13;;;23.60;58.20;;;;;;4509287;31;20399;-67
2022/08/08 10:19:56;;;;;;;1.42;0.73;;;23.60;58.10;;;;;;4495075;31;20513;-67
2022/08/08 10:22:24;;;;;;;2.63;0.70;;;23.60;58.10;;;;;;4509248;31;20073;-68
2022/08/08 10:25:06;;;;;;;3.15;0.80;;;23.60;58.10;;;;;;4509105;31;20095;-72
2022/08/08 10:27:42;;;;;;;1.90;0.82;;;23.60;58.10;;;;;;4509292;31;20065;-68
2022/08/08 10:30:10;;;;;;;2.05;1.10;;;23.60;58.10;;;;;;4508522;31;20097;-68
2022/08/08 10:32:41;;;;;;;3.15;0.75;;;23.60;58.00;;;;;;4509080;31;20077;-68
2022/08/08 10:35:15;;;;;;;1.42;0.80;;;23.60;58.10;;;;;;4508455;31;20083;-68
2022/08/08 10:37:56;;;;;;;6.93;0.88;;;23.60;58.10;;;;;;4509184;31;20088;-68
2022/08/08 10:40:24;;;;;;;4.32;1.00;;;23.70;58.20;;;;;;4508749;31;20087;-69
2022/08/08 10:42:56;;;;;;;2.00;0.90;;;23.70;58.20;;;;;;4508588;31;20087;-69
2022/08/08 10:45:22;;;;;;;2.58;0.80;;;23.60;58.00;;;;;;4509222;31;20089;-69
2022/08/08 10:47:57;;;;;;;5.93;0.80;;;23.70;58.10;;;;;;4508470;31;20554;-69
2022/08/08 10:50:31;;;;;;;2.55;1.00;;;23.70;58.00;;;;;;4508216;31;20165;-73
2022/08/08 10:53:02;;;;;;;2.30;0.82;;;23.70;58.20;;;;;;4508620;31;20162;-75
2022/08/08 10:55:28;;;;;;;2.55;0.90;;;23.70;58.10;;;;;;4507126;31;20112;-74
2022/08/08 10:57:54;;;;;;;5.53;1.05;;;23.70;57.90;;;;;;4508383;31;20095;-70
2022/08/08 11:00:22;;;;;;;2.92;0.70;;;23.70;57.90;;;;;;4508325;31;20077;-71
2022/08/08 11:02:49;;;;;;;3.03;0.75;;;23.70;57.90;;;;;;4508597;31;20131;-69
2022/08/08 11:05:15;;;;;;;2.67;1.00;;;23.80;57.90;;;;;;4508389;31;20439;-71
2022/08/08 11:07:49;;;;;;;2.50;0.90;;;23.80;57.80;;;;;;4508049;31;20442;-72
2022/08/08 11:10:17;;;;;;;3.97;0.88;;;23.80;57.90;;;;;;4508727;31;20072;-71
2022/08/08 11:12:45;;;;;;;3.97;0.90;;;23.80;57.90;;;;;;4508715;31;20091;-71
2022/08/08 11:15:15;;;;;;;5.28;1.00;;;23.80;57.90;;;;;;4508362;31;20410;-72
2022/08/08 11:17:42;;;;;;;4.15;0.77;;;23.80;57.90;;;;;;4508462;31;20127;-71
2022/08/08 11:20:14;;;;;;;3.40;0.98;;;23.80;57.80;;;;;;4508346;31;20119;-71
2022/08/08 11:22:40;;;;;;;2.78;0.80;;;23.80;57.70;;;;;;4508333;31;20077;-75
2022/08/08 11:25:07;;;;;;;2.85;0.90;;;23.90;57.60;;;;;;4508242;31;20177;-69
2022/08/08 11:27:35;;;;;;;11.57;1.30;;;23.90;57.80;;;;;;4508322;31;20482;-71
2022/08/08 11:30:06;;;;;;;6.05;0.98;;;23.90;58.00;;;;;;4507927;31;20073;-71
2022/08/08 11:32:39;;;;;;;4.75;1.10;;;23.90;58.10;;;;;;4508539;31;20069;-70
2022/08/08 11:35:13;;;;;;;2.67;0.90;;;24.00;58.00;;;;;;4508204;31;20153;-69
2022/08/08 11:37:41;;;;;;;4.13;0.80;;;24.00;58.00;;;;;;4507821;31;20164;-69
2022/08/08 11:40:11;;;;;;;1.60;0.88;;;24.00;58.00;;;;;;4508085;31;20087;-70
2022/08/08 11:42:41;;;;;;;4.10;1.00;;;24.00;57.90;;;;;;4508009;31;20083;-70
2022/08/08 11:45:09;;;;;;;4.63;0.95;;;24.00;57.80;;;;;;4508215;31;20088;-68
2022/08/08 11:47:37;;;;;;;3.28;0.88;;;24.10;57.80;;;;;;4507844;31;20449;-70
2022/08/08 11:50:11;;;;;;;2.90;0.85;;;24.10;57.60;;;;;;4507932;31;20421;-71
2022/08/08 11:52:38;;;;;;;3.25;0.90;;;24.10;57.70;;;;;;4508111;31;20076;-70
2022/08/08 11:55:17;;;;;;;2.30;0.85;;;24.20;57.60;;;;;;4507927;31;20077;-69
2022/08/08 11:57:44;;;;;;;3.63;0.98;;;24.20;57.40;;;;;;4508437;31;20085;-69
2022/08/08 12:00:16;;;;;;;2.03;0.70;;;24.20;57.40;;;;;;4507788;31;20419;-69
2022/08/08 12:02:53;;;;;;;4.10;0.82;;;24.20;57.30;;;;;;4507595;31;20087;-69
2022/08/08 12:05:30;;;;;;;2.28;0.60;;;24.20;57.10;;;;;;4507811;31;20108;-70
2022/08/08 12:07:56;;;;;;;3.35;0.68;;;24.20;56.90;;;;;;4508042;31;20084;-70
2022/08/08 12:10:25;;;;;;;2.60;0.68;;;24.20;56.70;;;;;;4507765;31;20057;-69
2022/08/08 12:12:59;;;;;;;2.28;0.55;;;24.20;56.50;;;;;;4507757;31;20213;-68
2022/08/08 12:15:31;;;;;;;1.83;0.70;;;24.20;56.30;;;;;;4507567;31;20142;-67
2022/08/08 12:17:57;;;;;;;2.30;0.73;;;24.20;56.20;;;;;;4507447;31;20072;-68
2022/08/08 12:20:23;;;;;;;2.15;0.63;;;24.20;56.30;;;;;;4507639;31;20154;-68
2022/08/08 12:22:52;;;;;;;4.03;0.70;;;24.30;56.30;;;;;;4507558;31;20097;-67
2022/08/08 12:25:26;;;;;;;2.13;0.77;;;24.20;56.20;;;;;;4507429;31;20135;-68
2022/08/08 12:28:10;;;;;;;4.43;0.82;;;24.30;56.10;;;;;;4507660;31;20084;-67
2022/08/08 12:30:37;;;;;;;2.17;0.73;;;24.30;57.10;;;;;;4507295;31;20076;-67
2022/08/08 12:33:03;;;;;;;1.70;0.57;;;24.30;56.20;;;;;;4507610;31;20134;-70
2022/08/08 12:35:38;;;;;;;4.25;0.70;;;24.30;56.30;;;;;;4507780;31;20113;-67
2022/08/08 12:38:06;;;;;;;3.88;0.80;;;24.30;56.40;;;;;;4507973;31;20083;-67
2022/08/08 12:40:43;;;;;;;5.65;1.02;;;24.30;56.60;;;;;;4507488;31;20077;-67
2022/08/08 12:43:09;;;;;;;1.55;0.65;;;24.20;56.70;;;;;;4507646;31;20108;-67
2022/08/08 12:45:41;;;;;;;2.13;0.90;;;24.20;56.80;;;;;;4507275;31;20073;-67
2022/08/08 12:48:16;;;;;;;2.75;0.93;;;24.20;56.90;;;;;;4507042;31;20611;-67
2022/08/08 12:50:48;;;;;;;2.67;0.90;;;24.20;57.00;;;;;;4507525;31;20162;-67
2022/08/08 12:53:19;;;;;;;2.42;0.70;;;24.20;57.20;;;;;;4507627;31;20149;-67
2022/08/08 12:55:55;;;;;;;2.47;0.73;;;24.20;57.30;;;;;;4507452;31;20394;-67
2022/08/08 12:58:26;;;;;;;3.88;0.90;;;24.10;57.30;;;;;;4507365;31;20178;-67
2022/08/08 13:00:52;;;;;;;1.45;0.73;;;24.10;57.30;;;;;;4507556;31;20080;-67
2022/08/08 13:03:31;;;;;;;3.88;0.82;;;24.10;57.30;;;;;;4507499;31;20425;-68
2022/08/08 13:06:14;;;;;;;4.38;0.90;;;24.10;57.40;;;;;;4507529;31;20064;-67
2022/08/08 13:08:44;;;;;;;1.55;0.70;;;24.10;57.40;;;;;;4507299;31;20146;-67
2022/08/08 13:11:31;;;;;;;2.92;0.80;;;24.10;57.50;;;;;;4507423;31;20068;-67
2022/08/08 13:14:11;;;;;;;1.88;0.98;;;24.10;57.60;;;;;;4509232;31;20130;-67
2022/08/08 13:16:38;;;;;;;3.22;0.77;;;24.10;57.60;;;;;;4510577;31;20478;-67
2022/08/08 13:19:07;;;;;;;3.35;0.90;;;24.10;57.80;;;;;;4510147;31;20068;-68
2022/08/08 13:21:53;;;;;;;3.20;0.80;;;24.00;57.80;;;;;;4510051;31;20064;-69
2022/08/08 13:24:21;;;;;;;3.20;0.60;;;24.00;57.80;;;;;;4510047;31;20184;-67
2022/08/08 13:26:46;;;;;;;2.28;0.73;;;24.00;57.80;;;;;;4510166;31;20128;-67